| time (UTC) | temp C | wind direction | speed KPH | gust KPH | rain 1hr cm | rain 24hr cm | rain mn cm | humidity % | barometer mb |
| 20260505164553 | 12 | 167 | 1.6 | 9.7 | 0.00 | 0.23 | 0.05 | 72 | 1011.1 |
| 20260505163054 | 12 | 144 | 1.6 | 11.3 | 0.00 | 0.23 | 0.05 | 78 | 1010.9 |
| 20260505161556 | 12 | 182 | 3.2 | 12.9 | 0.00 | 0.23 | 0.05 | 77 | 1010.7 |
| 20260505160104 | 11 | 200 | 6.4 | 20.9 | 0.03 | 0.23 | 0.05 | 74 | 1010.1 |
| 20260505153058 | 12 | 97 | 4.8 | 14.5 | 0.03 | 0.23 | 0.05 | 75 | 1010.4 |
| 20260505151558 | 11 | 40 | 4.8 | 19.3 | 0.03 | 0.23 | 0.05 | 75 | 1010.5 |
| 20260505124552 | 9 | 74 | 3.2 | 20.9 | 0.00 | 0.20 | 0.03 | 90 | 1010.0 |
| 20260505123053 | 10 | 5 | 4.8 | 14.5 | 0.00 | 0.20 | 0.03 | 89 | 1010.6 |
| 20260505121553 | 11 | 16 | 3.2 | 12.9 | 0.00 | 0.20 | 0.03 | 89 | 1010.5 |
| 20260505120052 | 11 | 136 | 0.0 | 6.4 | 0.00 | 0.20 | 0.03 | 90 | 1009.6 |
| 20260505114556 | 11 | 112 | 1.6 | 9.7 | 0.00 | 0.20 | 0.03 | 89 | 1009.4 |
| 20260505113054 | 11 | 0 | 1.6 | 11.3 | 0.00 | 0.20 | 0.03 | 91 | 1008.5 |
| 20260505111555 | 11 | 0 | 1.6 | 11.3 | 0.00 | 0.20 | 0.03 | 90 | 1008.6 |
| 20260505101607 | 13 | 138 | 1.6 | 12.9 | 0.00 | 0.20 | 0.03 | 90 | 1008.3 |
| 20260505094551 | 15 | 12 | 1.6 | 4.8 | 0.00 | 0.20 | 0.03 | 93 | 1007.7 |
| 20260505093102 | 15 | 0 | 0.0 | 1.6 | 0.00 | 0.20 | 0.03 | 93 | 1007.7 |
| 20260505091555 | 15 | 360 | 0.0 | 3.2 | 0.03 | 0.20 | 0.03 | 92 | 1007.0 |
| 20260505090055 | 15 | 0 | 0.0 | 3.2 | 0.03 | 0.20 | 0.03 | 91 | 1006.7 |
| 20260505084600 | 15 | 0 | 0.0 | 1.6 | 0.03 | 0.20 | 0.03 | 91 | 1006.8 |
| 20260505083048 | 15 | 0 | 0.0 | 1.6 | 0.03 | 0.20 | 0.03 | 91 | 1006.5 |
| 20260505081605 | 15 | 0 | 0.0 | 1.6 | 0.00 | 0.18 | 0.00 | 91 | 1006.3 |
| 20260505080059 | 15 | 0 | 0.0 | 3.2 | 0.00 | 0.18 | 0.00 | 90 | 1006.3 |
| 20260505074551 | 15 | 0 | 0.0 | 3.2 | 0.00 | 0.18 | 0.00 | 89 | 1006.2 |
| 20260505073049 | 15 | 0 | 0.0 | 1.6 | 0.00 | 0.18 | 0.00 | 88 | 1006.8 |
| 20260505071555 | 15 | 0 | 0.0 | 1.6 | 0.00 | 0.18 | 0.00 | 85 | 1007.1 |
| 20260505070058 | 16 | 0 | 0.0 | 14.5 | 0.00 | 0.18 | 0.00 | 81 | 1007.7 |
| 20260505064549 | 19 | 75 | 6.4 | 25.7 | 0.00 | 0.18 | 0.00 | 69 | 1007.9 |
| 20260505063100 | 20 | 326 | 4.8 | 14.5 | 0.00 | 0.18 | 0.00 | 65 | 1005.8 |
| 20260505061550 | 20 | 316 | 4.8 | 17.7 | 0.00 | 0.18 | 0.00 | 65 | 1005.3 |
| 20260505060055 | 20 | 310 | 6.4 | 17.7 | 0.00 | 0.18 | 0.00 | 64 | 1005.0 |
| 20260505054554 | 20 | 330 | 4.8 | 19.3 | 0.00 | 0.18 | 0.00 | 64 | 1004.7 |
| 20260505053059 | 20 | 308 | 6.4 | 16.1 | 0.00 | 0.18 | 0.00 | 64 | 1004.6 |
| 20260505051555 | 21 | 317 | 6.4 | 20.9 | 0.00 | 0.18 | 0.00 | 63 | 1005.0 |
| 20260505041553 | 20 | 338 | 1.6 | 16.1 | 0.00 | 0.23 | 0.18 | 65 | 1003.7 |
| 20260505040056 | 20 | 302 | 3.2 | 14.5 | 0.00 | 0.23 | 0.18 | 64 | 1004.2 |
| 20260505034553 | 20 | 310 | 3.2 | 16.1 | 0.00 | 0.23 | 0.18 | 64 | 1004.3 |
| 20260505033053 | 21 | 296 | 1.6 | 11.3 | 0.00 | 0.23 | 0.18 | 63 | 1004.4 |
| 20260505031554 | 21 | 304 | 6.4 | 22.5 | 0.00 | 0.23 | 0.18 | 62 | 1004.5 |
| 20260505030052 | 21 | 313 | 4.8 | 16.1 | 0.00 | 0.23 | 0.18 | 61 | 1004.4 |
| 20260505024555 | 21 | 311 | 6.4 | 17.7 | 0.00 | 0.23 | 0.18 | 60 | 1004.2 |
| 20260505023101 | 21 | 225 | 3.2 | 14.5 | 0.00 | 0.23 | 0.18 | 60 | 1003.8 |
| 20260505021555 | 22 | 251 | 4.8 | 19.3 | 0.03 | 0.23 | 0.18 | 60 | 1003.3 |
| 20260505020054 | 22 | 277 | 6.4 | 19.3 | 0.03 | 0.23 | 0.18 | 59 | 1003.1 |
| 20260505014556 | 22 | 279 | 4.8 | 14.5 | 0.03 | 0.23 | 0.18 | 59 | 1003.1 |
| 20260505013056 | 23 | 315 | 3.2 | 14.5 | 0.03 | 0.23 | 0.18 | 56 | 1002.9 |
| 20260505011553 | 23 | 331 | 6.4 | 19.3 | 0.00 | 0.20 | 0.15 | 56 | 1002.8 |
| 20260505010110 | 23 | 325 | 1.6 | 14.5 | 0.00 | 0.20 | 0.15 | 57 | 1002.8 |
| 20260505004550 | 23 | 220 | 3.2 | 14.5 | 0.00 | 0.20 | 0.15 | 57 | 1002.5 |
| 20260505003055 | 23 | 288 | 6.4 | 17.7 | 0.00 | 0.20 | 0.15 | 57 | 1002.4 |
| 20260505001552 | 23 | 291 | 1.6 | 9.7 | 0.00 | 0.20 | 0.15 | 62 | 1002.4 |
| 20260505000054 | 23 | 0 | 0.0 | 6.4 | 0.00 | 0.20 | 0.15 | 64 | 1002.4 |
| 20260504234552 | 22 | 320 | 4.8 | 12.9 | 0.00 | 0.20 | 0.15 | 63 | 1002.4 |
| 20260504233052 | 22 | 33 | 6.4 | 16.1 | 0.00 | 0.20 | 0.15 | 65 | 1002.4 |
| 20260504231558 | 22 | 265 | 0.0 | 3.2 | 0.00 | 0.20 | 0.15 | 65 | 1002.1 |
| 20260504230055 | 22 | 0 | 0.0 | 3.2 | 0.03 | 0.20 | 0.15 | 63 | 1002.8 |
| 20260504224552 | 23 | 0 | 1.6 | 11.3 | 0.03 | 0.20 | 0.15 | 62 | 1003.2 |
| 20260504223101 | 23 | 295 | 3.2 | 12.9 | 0.03 | 0.20 | 0.15 | 62 | 1003.7 |
| 20260504221604 | 23 | 170 | 1.6 | 11.3 | 0.03 | 0.20 | 0.15 | 60 | 1003.7 |
| 20260504220100 | 23 | 278 | 0.0 | 8.0 | 0.00 | 0.18 | 0.13 | 61 | 1003.8 |
| 20260504214600 | 23 | 318 | 1.6 | 19.3 | 0.00 | 0.18 | 0.13 | 61 | 1003.5 |
| 20260504213104 | 23 | 148 | 4.8 | 30.6 | 0.00 | 0.18 | 0.13 | 59 | 1003.7 |
| 20260504211553 | 23 | 262 | 3.2 | 20.9 | 0.03 | 0.18 | 0.13 | 61 | 1004.0 |
| 20260504210056 | 23 | 327 | 3.2 | 14.5 | 0.03 | 0.18 | 0.13 | 63 | 1004.1 |
| 20260504204559 | 22 | 101 | 4.8 | 22.5 | 0.03 | 0.18 | 0.13 | 66 | 1004.3 |
| 20260504203053 | 22 | 207 | 1.6 | 16.1 | 0.03 | 0.18 | 0.13 | 68 | 1004.4 |
| 20260504201556 | 22 | 205 | 4.8 | 22.5 | 0.00 | 0.15 | 0.10 | 69 | 1004.6 |
| 20260504200053 | 22 | 327 | 6.4 | 20.9 | 0.03 | 0.15 | 0.10 | 69 | 1004.8 |
| 20260504194557 | 21 | 257 | 3.2 | 20.9 | 0.03 | 0.15 | 0.10 | 72 | 1004.5 |
| 20260504193101 | 18 | 153 | 6.4 | 19.3 | 0.03 | 0.15 | 0.10 | 78 | 1003.5 |
| 20260504191601 | 17 | 205 | 3.2 | 9.7 | 0.05 | 0.15 | 0.10 | 81 | 1003.6 |
| 20260504190108 | 17 | 271 | 1.6 | 6.4 | 0.03 | 0.13 | 0.08 | 82 | 1005.4 |
| 20260504184557 | 16 | 243 | 0.0 | 6.4 | 0.05 | 0.13 | 0.08 | 88 | 1005.7 |
| 20260504183057 | 16 | 201 | 1.6 | 9.7 | 0.05 | 0.13 | 0.08 | 89 | 1005.7 |
| 20260504181551 | 15 | 204 | 1.6 | 12.9 | 0.05 | 0.10 | 0.05 | 87 | 1006.1 |
| 20260504174550 | 17 | 0 | 0.0 | 11.3 | 0.03 | 0.08 | 0.03 | 82 | 1006.5 |
| 20260504173057 | 18 | 342 | 0.0 | 8.0 | 0.03 | 0.08 | 0.03 | 73 | 1006.9 |
| 20260504171558 | 18 | 0 | 3.2 | 9.7 | 0.00 | 0.05 | 0.00 | 69 | 1006.3 |